Cape Girardeau Regional Airport Cape Girardeau US
ICAO: KCGI
IATA: CGI
Category: Medium
Scheduled Services: Yes

Elevation: 342 ft
TransAlt. 18000 ft.

Airport Communications:
ASOS:120.55
MEMPHIS CNTR:133.65
CTAF:119
GND:121.6
ST LOUIS RDO:122.4
TWR:119
UNICOM:122.95

KCGI Zoom In..

If Map Doesn't Load, Click Here

Runways:

(A) RW 02 length 3997 ft width 100 ft
---- / hdg 23

(B) RW 10 length 6500 ft width 150 ft
ILS 109.50 / hdg 108

(C) RW 20 length 3997 ft width 100 ft
---- / hdg 203

(D) RW 28 length 6500 ft width 150 ft
---- / hdg 288

Location; KCGI
Day. 21 / Time. 15.53 Zulu
* Altimeter: 30.06
* Temperature: 27° c. 80.6°f.
* Wind from: 360° Speed 06 kn.
Dewpoint: 20° c.
Visibility: 10 Statute Miles.
Clouds: Broken 7000 ft.
Clouds: Broken 9000 ft.

KCGI 211553Z 36006KT 10SM BKN070 BKN090 27/20 A3006 RMK AO2 RAE33 SLP174 P0000 T02670200


Wind From 360°
Speed 06 kn.

 
 
jpsmedia.com for Web Design worldairports.se 2018   terms of use